Germantown, Illinois
Current Conditions -  °F | °C
As of 12:58 PM on Friday 24 Oct 2014 (Local Time) from KBLV Reporting Station
Scattered Clouds Scattered Clouds  
Wind Chill: 68°   Ceiling: Unl
Heat Index: 68°   Visibility: 10mi
Dew Point: 57°   Wind: 6mph
Humidity: 69%   Direction: 270°W
Pressure: 30.08"   Gusts: NA
Location:  38.55°N, 89.54°W
Report Text: KBLV 241758Z AUTO 27005KT 10SM SCT023 20/14 A3008 RMK AO2 SLP188 T01980140 10200 20085 58015 $
Loading
Personal Weather Stations






























Interactive Weather Map
Tropical Storm Tracking
New forecast layout! Learn more

10-Day Weather Forecast

Advertisements
Track Severe Weather on mobile